Urb Santa Barbara, Puerto Rico
Current Conditions -  °F | °C
As of 2:56 AM on Saturday 25 Oct 2014 (Local Time) from TJSJ Reporting Station
Few Clouds Few Clouds  
Wind Chill: 81°   Ceiling: Unl
Heat Index: 87°   Visibility: 10mi
Dew Point: 76°   Wind: 0mph
Humidity: 85%   Direction: NA
Pressure: 29.88"   Gusts: NA
Location:  18.4125°N, 66.0374°W
Report Text: TJSJ 250656Z 00000KT 10SM FEW032 27/24 A2988 RMK AO2 SLP118 T02720244
Loading
Personal Weather Stations






























Interactive Weather Map
Tropical Storm Tracking
New forecast layout! Learn more

10-Day Weather Forecast

Advertisements
Track Severe Weather on mobile